Gertrude, Kentucky
Current Conditions -  °F | °C
As of 10:35 PM on Friday 31 Oct 2014 (Local Time) from KFGX Reporting Station
Drizzle Drizzle  
Wind Chill: 28°   Ceiling: 700
Heat Index: 36°   Visibility: 7mi
Dew Point: 35°   Wind: 13mph
Humidity: 95%   Direction: 300°WNW
Pressure: 29.96"   Gusts: NA
Location:  38.6516°N, 84.0942°W
Report Text: KFGX 010235Z AUTO 30011KT 7SM DZ OVC007 02/02 A2996 RMK AO2 T00230016
Loading
Personal Weather Stations






























Interactive Weather Map
Tropical Storm Tracking
New forecast layout! Learn more

10-Day Weather Forecast

Advertisements
Track Severe Weather on mobile